Time;durP1;ratioP1;P1;durP2;ratioP2;P2;SDS_P1;SDS_P2;PMS_P1;PMS_P2;Temp;Humidity;BMP_temperature;BMP_pressure;BME280_temperature;BME280_humidity;BME280_pressure;Samples;Min_cycle;Max_cycle;Signal;HPM_P1;HPM_P2
2023/01/30 00:00:34;;;;;;;31.33;17.38;;;;;;;;;;5019331;28;20061;-80
2023/01/30 00:03:01;;;;;;;35.03;18.58;;;;;;;;;;5006299;28;20516;-80
2023/01/30 00:05:27;;;;;;;28.40;17.73;;;;;;;;;;5007269;28;20054;-80
2023/01/30 00:07:53;;;;;;;31.50;18.08;;;;;;;;;;5005414;28;20598;-80
2023/01/30 00:10:20;;;;;;;43.78;19.52;;;;;;;;;;5005946;28;20522;-80
2023/01/30 00:12:46;;;;;;;29.85;17.90;;;;;;;;;;5005901;28;20424;-80
2023/01/30 00:15:12;;;;;;;34.22;18.73;;;;;;;;;;5006057;28;20273;-79
2023/01/30 00:17:38;;;;;;;30.50;16.67;;;;;;;;;;5005031;28;20054;-79
2023/01/30 00:20:05;;;;;;;29.98;16.90;;;;;;;;;;5006489;28;20057;-80
2023/01/30 00:22:32;;;;;;;26.25;16.10;;;;;;;;;;5005221;28;20119;-80
2023/01/30 00:24:58;;;;;;;28.40;16.17;;;;;;;;;;5003690;28;20058;-80
2023/01/30 00:27:24;;;;;;;25.17;14.77;;;;;;;;;;5018590;28;20062;-80
2023/01/30 00:29:51;;;;;;;25.42;15.43;;;;;;;;;;5004333;28;20682;-80
2023/01/30 00:32:28;;;;;;;22.77;13.88;;;;;;;;;;5002279;28;20514;-80
2023/01/30 00:34:54;;;;;;;32.42;14.30;;;;;;;;;;5003120;28;20541;-80
2023/01/30 00:37:21;;;;;;;23.33;13.52;;;;;;;;;;5004463;28;20503;-80
2023/01/30 00:39:47;;;;;;;29.25;15.07;;;;;;;;;;5004859;28;20054;-80
2023/01/30 00:47:44;;;;;;;19.13;11.57;;;;;;;;;;5003499;28;20054;-80
2023/01/30 00:50:10;;;;;;;20.25;12.32;;;;;;;;;;5005222;28;20141;-80
2023/01/30 00:52:36;;;;;;;23.80;12.55;;;;;;;;;;5001967;28;20058;-80
2023/01/30 00:55:03;;;;;;;27.83;11.35;;;;;;;;;;5005290;28;20054;-80
2023/01/30 00:57:29;;;;;;;21.98;10.82;;;;;;;;;;5004511;28;20063;-80
2023/01/30 00:59:56;;;;;;;22.50;10.38;;;;;;;;;;5004847;28;20346;-78
2023/01/30 01:02:22;;;;;;;20.52;10.93;;;;;;;;;;5002406;28;20559;-79
2023/01/30 01:04:48;;;;;;;15.60;9.68;;;;;;;;;;5002913;28;20054;-79
2023/01/30 01:07:15;;;;;;;19.42;10.85;;;;;;;;;;5002651;28;20272;-80
2023/01/30 01:09:41;;;;;;;19.05;11.60;;;;;;;;;;5004492;28;20046;-81
2023/01/30 01:12:07;;;;;;;17.67;10.13;;;;;;;;;;5004445;28;20487;-81
2023/01/30 01:14:34;;;;;;;22.83;10.88;;;;;;;;;;5003906;28;20062;-81
2023/01/30 01:17:00;;;;;;;24.60;11.77;;;;;;;;;;5004642;28;20058;-80
2023/01/30 01:19:27;;;;;;;18.88;11.75;;;;;;;;;;5003635;28;20113;-80
2023/01/30 01:21:53;;;;;;;20.98;10.70;;;;;;;;;;5002757;28;20051;-80
2023/01/30 01:24:19;;;;;;;19.42;11.68;;;;;;;;;;5016867;28;20058;-79
2023/01/30 01:26:46;;;;;;;23.05;11.90;;;;;;;;;;5004872;28;20080;-80
2023/01/30 01:29:13;;;;;;;20.23;10.48;;;;;;;;;;5003768;28;20050;-80
2023/01/30 01:31:40;;;;;;;24.17;11.00;;;;;;;;;;5004107;28;20081;-80
2023/01/30 01:34:07;;;;;;;26.30;11.02;;;;;;;;;;5003888;28;20047;-80
2023/01/30 01:36:33;;;;;;;19.83;10.40;;;;;;;;;;5004276;28;20494;-80
2023/01/30 01:39:19;;;;;;;21.60;9.95;;;;;;;;;;5003121;28;20089;-80
2023/01/30 01:41:45;;;;;;;22.63;10.70;;;;;;;;;;5003206;28;20525;-80
2023/01/30 01:44:13;;;;;;;23.30;10.43;;;;;;;;;;5004182;28;20054;-80
2023/01/30 01:46:39;;;;;;;17.80;9.90;;;;;;;;;;5002527;28;20070;-80
2023/01/30 01:49:10;;;;;;;17.17;9.98;;;;;;;;;;5002916;28;20054;-80
2023/01/30 01:51:40;;;;;;;20.63;10.00;;;;;;;;;;5004706;28;20055;-80
2023/01/30 01:54:11;;;;;;;18.38;9.35;;;;;;;;;;5003866;28;20062;-82
2023/01/30 01:56:39;;;;;;;19.02;8.93;;;;;;;;;;5001542;28;20038;-80
2023/01/30 01:59:21;;;;;;;26.00;10.15;;;;;;;;;;5003513;28;20059;-81
2023/01/30 02:01:48;;;;;;;28.77;10.38;;;;;;;;;;5000529;28;20050;-81
2023/01/30 02:05:00;;;;;;;24.08;9.85;;;;;;;;;;5003035;28;20050;-81
2023/01/30 02:07:01;;;;;;;19.13;9.15;;;;;;;;;;5003481;28;20066;-80
2023/01/30 02:09:27;;;;;;;20.83;8.60;;;;;;;;;;5002544;28;20584;-80
2023/01/30 02:11:55;;;;;;;21.17;8.93;;;;;;;;;;5001943;28;20542;-80
2023/01/30 02:14:22;;;;;;;22.75;10.13;;;;;;;;;;5004029;28;20081;-79
2023/01/30 02:16:48;;;;;;;18.25;8.23;;;;;;;;;;5003802;28;20170;-79
2023/01/30 02:19:23;;;;;;;20.02;8.38;;;;;;;;;;5001661;28;20054;-79
2023/01/30 02:22:15;;;;;;;25.15;8.70;;;;;;;;;;5001911;28;20057;-80
2023/01/30 02:24:44;;;;;;;17.70;8.77;;;;;;;;;;5002735;28;20102;-80
2023/01/30 02:27:11;;;;;;;13.30;7.90;;;;;;;;;;5003631;28;20057;-79
2023/01/30 02:29:37;;;;;;;20.80;8.60;;;;;;;;;;5003168;28;20062;-79
2023/01/30 02:32:08;;;;;;;16.00;7.65;;;;;;;;;;5000991;28;20055;-79
2023/01/30 02:34:41;;;;;;;14.68;8.10;;;;;;;;;;5002971;28;20050;-79
2023/01/30 02:37:10;;;;;;;20.63;8.02;;;;;;;;;;5006973;28;20062;-82
2023/01/30 02:39:43;;;;;;;20.05;8.15;;;;;;;;;;5006094;28;20054;-81
2023/01/30 02:42:09;;;;;;;18.02;7.35;;;;;;;;;;5006554;28;20051;-80
2023/01/30 02:44:56;;;;;;;22.80;8.82;;;;;;;;;;5006914;28;20058;-82
2023/01/30 02:47:26;;;;;;;18.38;6.90;;;;;;;;;;4990932;28;20512;-87
2023/01/30 02:50:01;;;;;;;20.08;7.93;;;;;;;;;;5005271;28;20046;-80
2023/01/30 02:52:28;;;;;;;12.10;6.57;;;;;;;;;;5006987;28;20054;-80
2023/01/30 02:54:54;;;;;;;14.82;7.13;;;;;;;;;;5005081;28;20054;-80
2023/01/30 02:57:21;;;;;;;20.80;7.30;;;;;;;;;;5006528;28;20134;-81
2023/01/30 02:59:50;;;;;;;16.67;6.80;;;;;;;;;;5006478;28;20065;-81
2023/01/30 03:02:36;;;;;;;13.13;6.03;;;;;;;;;;5004972;28;20054;-81
2023/01/30 03:05:13;;;;;;;15.50;6.20;;;;;;;;;;5001807;28;20061;-81
2023/01/30 03:07:46;;;;;;;11.73;6.00;;;;;;;;;;5004367;28;20063;-80
2023/01/30 03:10:31;;;;;;;21.83;6.18;;;;;;;;;;5006693;28;20051;-80
2023/01/30 03:13:09;;;;;;;16.02;6.35;;;;;;;;;;5007876;28;20054;-80
2023/01/30 03:15:41;;;;;;;11.38;5.60;;;;;;;;;;5004891;28;20499;-80
2023/01/30 03:18:08;;;;;;;21.15;6.13;;;;;;;;;;5006434;28;20126;-80
2023/01/30 03:20:38;;;;;;;15.43;5.00;;;;;;;;;;5006500;28;20133;-81
2023/01/30 03:23:04;;;;;;;16.67;5.53;;;;;;;;;;5004966;28;20058;-80
2023/01/30 03:25:32;;;;;;;10.50;4.30;;;;;;;;;;5006329;28;20058;-80
2023/01/30 03:28:01;;;;;;;14.40;4.07;;;;;;;;;;5005248;28;20058;-80
2023/01/30 03:30:27;;;;;;;9.45;4.05;;;;;;;;;;5005782;28;20557;-81
2023/01/30 03:32:53;;;;;;;18.38;4.32;;;;;;;;;;5005709;28;20105;-80
2023/01/30 03:35:20;;;;;;;11.95;4.38;;;;;;;;;;5005080;28;20058;-80
2023/01/30 03:37:46;;;;;;;15.00;3.53;;;;;;;;;;5006459;28;20060;-80
2023/01/30 03:40:14;;;;;;;18.40;4.25;;;;;;;;;;5005934;28;20050;-80
2023/01/30 03:42:41;;;;;;;10.85;3.65;;;;;;;;;;5003140;28;20050;-81
2023/01/30 03:45:08;;;;;;;10.75;3.83;;;;;;;;;;5004986;28;20057;-81
2023/01/30 03:47:34;;;;;;;7.25;4.07;;;;;;;;;;5004672;28;20058;-81
2023/01/30 03:50:01;;;;;;;9.93;3.03;;;;;;;;;;5005042;28;20050;-80
2023/01/30 03:52:27;;;;;;;10.70;3.80;;;;;;;;;;5004600;28;20582;-80
2023/01/30 03:54:53;;;;;;;20.65;4.07;;;;;;;;;;5005886;28;20055;-80
2023/01/30 03:57:20;;;;;;;18.30;4.20;;;;;;;;;;5004574;28;20078;-81
2023/01/30 03:59:46;;;;;;;12.68;3.83;;;;;;;;;;5004838;28;20419;-80
2023/01/30 04:02:13;;;;;;;18.27;4.07;;;;;;;;;;5004160;28;20496;-80
2023/01/30 04:04:40;;;;;;;10.98;3.55;;;;;;;;;;5005184;28;20062;-80
2023/01/30 04:07:06;;;;;;;11.63;3.20;;;;;;;;;;5004772;28;20062;-80
2023/01/30 04:09:32;;;;;;;14.57;4.00;;;;;;;;;;5004057;28;20103;-81
2023/01/30 04:11:59;;;;;;;12.93;4.18;;;;;;;;;;5003773;28;20058;-80
2023/01/30 04:14:25;;;;;;;13.35;4.15;;;;;;;;;;5003233;28;20062;-79
2023/01/30 04:16:51;;;;;;;16.63;3.78;;;;;;;;;;5005004;28;20712;-80
2023/01/30 04:19:17;;;;;;;17.08;4.80;;;;;;;;;;5005342;28;20114;-80
2023/01/30 04:21:44;;;;;;;17.77;3.72;;;;;;;;;;5004517;28;20226;-80
2023/01/30 04:24:10;;;;;;;18.73;4.65;;;;;;;;;;5004660;28;20050;-80
2023/01/30 04:26:36;;;;;;;11.63;3.42;;;;;;;;;;5003524;28;20057;-80
2023/01/30 04:29:03;;;;;;;10.75;3.40;;;;;;;;;;5003792;28;20062;-80
2023/01/30 04:31:29;;;;;;;18.60;3.65;;;;;;;;;;5003979;28;20447;-79
2023/01/30 04:33:55;;;;;;;16.90;4.40;;;;;;;;;;5004657;28;20050;-81
2023/01/30 04:36:22;;;;;;;17.10;3.75;;;;;;;;;;4992520;28;20134;-80
2023/01/30 04:38:48;;;;;;;11.48;3.25;;;;;;;;;;4998868;28;20054;-80
2023/01/30 04:41:14;;;;;;;12.55;4.57;;;;;;;;;;5004611;28;20551;-79
2023/01/30 04:43:41;;;;;;;15.40;3.97;;;;;;;;;;5001842;28;20522;-80
2023/01/30 04:46:07;;;;;;;15.38;3.55;;;;;;;;;;5004549;28;20629;-81
2023/01/30 04:48:33;;;;;;;16.90;3.40;;;;;;;;;;5004817;28;20101;-80
2023/01/30 04:51:00;;;;;;;18.48;3.33;;;;;;;;;;5003729;28;20691;-80
2023/01/30 04:53:26;;;;;;;19.60;4.53;;;;;;;;;;5005079;28;20515;-80
2023/01/30 04:55:52;;;;;;;10.68;2.83;;;;;;;;;;5003625;28;20113;-80
2023/01/30 04:58:18;;;;;;;13.30;3.00;;;;;;;;;;5003170;28;20061;-80
2023/01/30 05:00:45;;;;;;;16.27;3.45;;;;;;;;;;5001819;28;20504;-80
2023/01/30 05:03:11;;;;;;;12.35;3.63;;;;;;;;;;5004266;28;20073;-80
2023/01/30 05:05:38;;;;;;;17.52;3.70;;;;;;;;;;5002505;28;20058;-80
2023/01/30 05:08:04;;;;;;;17.25;2.88;;;;;;;;;;5003277;28;20560;-79
2023/01/30 05:10:30;;;;;;;10.40;3.47;;;;;;;;;;5003888;28;20057;-80
2023/01/30 05:13:00;;;;;;;15.27;3.33;;;;;;;;;;5002220;28;20082;-80
2023/01/30 05:15:27;;;;;;;11.52;2.70;;;;;;;;;;5004330;28;20062;-80
2023/01/30 05:17:53;;;;;;;18.92;3.25;;;;;;;;;;5004970;28;20054;-79
2023/01/30 05:20:19;;;;;;;8.98;2.75;;;;;;;;;;5003418;28;20120;-80
2023/01/30 05:22:45;;;;;;;11.63;2.40;;;;;;;;;;5004441;28;20057;-79
2023/01/30 05:25:12;;;;;;;6.53;2.40;;;;;;;;;;5001835;28;20058;-80
2023/01/30 05:27:38;;;;;;;9.80;2.65;;;;;;;;;;4998798;28;20058;-79
2023/01/30 05:30:05;;;;;;;11.13;2.90;;;;;;;;;;5003373;28;20051;-80
2023/01/30 05:32:31;;;;;;;12.77;2.67;;;;;;;;;;5004690;28;20058;-81
2023/01/30 05:34:58;;;;;;;20.88;3.25;;;;;;;;;;5002681;28;20120;-82
2023/01/30 05:37:24;;;;;;;11.18;2.70;;;;;;;;;;5004247;28;20058;-80
2023/01/30 05:39:50;;;;;;;12.93;3.50;;;;;;;;;;5003079;28;20054;-80
2023/01/30 05:42:17;;;;;;;20.40;3.05;;;;;;;;;;5001679;28;20534;-81
2023/01/30 05:44:43;;;;;;;16.15;3.70;;;;;;;;;;5003544;28;20488;-80
2023/01/30 05:47:10;;;;;;;9.13;2.92;;;;;;;;;;5004562;28;20061;-80
2023/01/30 05:49:36;;;;;;;19.60;3.10;;;;;;;;;;5002150;28;20061;-81
2023/01/30 05:52:02;;;;;;;20.40;3.08;;;;;;;;;;5004231;28;20058;-80
2023/01/30 05:54:29;;;;;;;9.23;2.53;;;;;;;;;;5004213;28;20065;-80
2023/01/30 05:56:55;;;;;;;12.10;2.55;;;;;;;;;;5000807;28;20064;-81
2023/01/30 05:59:21;;;;;;;17.80;3.03;;;;;;;;;;5003858;28;20277;-81
2023/01/30 06:01:48;;;;;;;15.95;3.55;;;;;;;;;;5002794;28;20055;-81
2023/01/30 06:04:14;;;;;;;12.13;2.75;;;;;;;;;;5003486;28;20329;-80
2023/01/30 06:06:40;;;;;;;15.55;2.47;;;;;;;;;;5003862;28;20512;-80
2023/01/30 06:09:08;;;;;;;12.57;2.22;;;;;;;;;;5003002;28;20207;-79
2023/01/30 06:11:35;;;;;;;11.13;2.40;;;;;;;;;;5003383;28;20061;-79
2023/01/30 06:14:01;;;;;;;15.68;2.78;;;;;;;;;;5007533;28;20058;-80
2023/01/30 06:16:27;;;;;;;10.60;2.25;;;;;;;;;;5011289;28;20082;-80
2023/01/30 06:18:54;;;;;;;15.63;3.05;;;;;;;;;;5008602;28;20120;-79
2023/01/30 06:21:20;;;;;;;16.98;2.97;;;;;;;;;;5009234;28;20177;-80
2023/01/30 06:23:47;;;;;;;21.08;3.90;;;;;;;;;;5005389;28;20054;-79
2023/01/30 06:26:13;;;;;;;12.27;2.55;;;;;;;;;;5004588;28;20082;-79
2023/01/30 06:28:40;;;;;;;13.15;2.85;;;;;;;;;;5006916;28;20061;-79
2023/01/30 06:31:07;;;;;;;15.77;2.88;;;;;;;;;;5006474;28;20066;-79
2023/01/30 06:33:34;;;;;;;10.60;2.30;;;;;;;;;;5013077;28;20085;-80
2023/01/30 06:36:00;;;;;;;12.90;2.45;;;;;;;;;;5007361;28;20054;-80
2023/01/30 06:38:26;;;;;;;17.05;2.92;;;;;;;;;;5003458;28;20507;-80
2023/01/30 06:40:53;;;;;;;13.35;2.17;;;;;;;;;;5006645;28;20050;-79
2023/01/30 06:43:19;;;;;;;13.05;2.80;;;;;;;;;;5003512;28;20525;-80
2023/01/30 06:45:45;;;;;;;11.57;3.40;;;;;;;;;;4997009;28;20610;-79
2023/01/30 06:48:12;;;;;;;9.00;2.10;;;;;;;;;;4993221;28;20105;-79
2023/01/30 06:50:38;;;;;;;17.15;2.80;;;;;;;;;;5004060;28;20058;-78
2023/01/30 06:53:06;;;;;;;15.10;3.15;;;;;;;;;;5000250;28;20059;-78
2023/01/30 06:55:36;;;;;;;12.30;2.92;;;;;;;;;;5003967;28;20054;-79
2023/01/30 06:58:04;;;;;;;13.88;2.80;;;;;;;;;;5001875;28;20061;-79
2023/01/30 07:00:31;;;;;;;17.85;4.05;;;;;;;;;;5002139;28;20058;-79
2023/01/30 07:02:57;;;;;;;19.98;3.33;;;;;;;;;;5001638;28;20095;-80
2023/01/30 07:05:24;;;;;;;25.33;3.70;;;;;;;;;;5018402;28;20057;-78
2023/01/30 07:07:50;;;;;;;24.40;4.97;;;;;;;;;;5012206;28;20590;-79
2023/01/30 07:10:17;;;;;;;13.32;3.15;;;;;;;;;;5004343;28;20412;-79
2023/01/30 07:12:44;;;;;;;16.38;3.33;;;;;;;;;;5003464;28;20224;-78
2023/01/30 07:15:11;;;;;;;18.35;2.88;;;;;;;;;;5004203;28;20038;-78
2023/01/30 07:17:38;;;;;;;19.85;3.08;;;;;;;;;;5001497;28;20089;-78
2023/01/30 07:20:05;;;;;;;15.23;2.63;;;;;;;;;;5000378;28;20643;-79
2023/01/30 07:22:31;;;;;;;13.90;3.55;;;;;;;;;;4999887;28;20506;-78
2023/01/30 07:24:58;;;;;;;17.10;3.45;;;;;;;;;;5004187;28;20503;-77
2023/01/30 07:27:24;;;;;;;11.65;2.15;;;;;;;;;;5001306;28;20095;-77
2023/01/30 07:29:50;;;;;;;21.88;3.35;;;;;;;;;;5002622;28;20511;-78
2023/01/30 07:32:19;;;;;;;19.15;2.78;;;;;;;;;;5001159;28;20561;-78
2023/01/30 07:34:45;;;;;;;24.48;3.45;;;;;;;;;;5001535;28;20054;-80
2023/01/30 07:37:12;;;;;;;10.55;2.63;;;;;;;;;;5003190;28;20145;-80
2023/01/30 07:39:38;;;;;;;22.15;4.30;;;;;;;;;;5001603;28;20451;-80
2023/01/30 07:42:05;;;;;;;21.13;3.75;;;;;;;;;;5002350;28;20661;-77
2023/01/30 07:44:32;;;;;;;19.00;3.20;;;;;;;;;;5002104;28;20082;-79
2023/01/30 07:46:59;;;;;;;11.60;2.67;;;;;;;;;;5002337;28;20637;-79
2023/01/30 07:49:26;;;;;;;9.05;2.42;;;;;;;;;;4999662;28;20102;-77
2023/01/30 07:51:52;;;;;;;13.10;2.85;;;;;;;;;;5001132;28;20061;-77
2023/01/30 07:54:18;;;;;;;13.88;3.15;;;;;;;;;;5000961;28;20051;-77
2023/01/30 07:56:45;;;;;;;17.05;2.95;;;;;;;;;;5001682;28;20150;-78
2023/01/30 07:59:12;;;;;;;19.00;2.92;;;;;;;;;;5000592;28;20086;-78
2023/01/30 08:01:38;;;;;;;24.65;4.32;;;;;;;;;;5001688;28;20129;-79
2023/01/30 08:04:04;;;;;;;17.00;3.28;;;;;;;;;;5003785;28;20073;-78
2023/01/30 08:06:31;;;;;;;20.73;5.97;;;;;;;;;;4999964;28;20137;-79
2023/01/30 08:08:57;;;;;;;22.30;3.15;;;;;;;;;;5002251;28;20112;-79
2023/01/30 08:11:23;;;;;;;15.52;2.42;;;;;;;;;;5001063;28;20050;-79
2023/01/30 08:13:50;;;;;;;15.55;2.58;;;;;;;;;;5001631;28;20530;-79
2023/01/30 08:16:16;;;;;;;29.73;4.45;;;;;;;;;;5000320;28;20057;-78
2023/01/30 08:18:43;;;;;;;13.80;2.72;;;;;;;;;;5001908;28;20058;-78
2023/01/30 08:21:10;;;;;;;18.50;3.28;;;;;;;;;;4999651;28;20054;-79
2023/01/30 08:23:36;;;;;;;19.10;3.85;;;;;;;;;;5001297;28;20062;-79
2023/01/30 08:26:03;;;;;;;12.00;2.58;;;;;;;;;;5001320;28;20078;-78
2023/01/30 08:28:29;;;;;;;22.58;3.72;;;;;;;;;;5000554;28;20054;-78
2023/01/30 08:30:56;;;;;;;14.43;2.75;;;;;;;;;;5001177;28;20109;-78
2023/01/30 08:33:23;;;;;;;12.70;2.60;;;;;;;;;;5001003;28;20100;-77
2023/01/30 08:35:50;;;;;;;16.90;3.53;;;;;;;;;;5000178;28;20050;-80
2023/01/30 08:38:16;;;;;;;19.42;3.53;;;;;;;;;;5000319;28;20435;-80
2023/01/30 08:40:43;;;;;;;18.65;3.20;;;;;;;;;;4999859;28;20409;-79
2023/01/30 08:43:09;;;;;;;15.45;3.75;;;;;;;;;;5000484;28;20069;-79
2023/01/30 08:45:35;;;;;;;13.13;2.97;;;;;;;;;;4997843;28;20454;-79
2023/01/30 08:48:03;;;;;;;12.02;2.75;;;;;;;;;;5000133;28;20835;-79
2023/01/30 08:50:29;;;;;;;20.27;3.55;;;;;;;;;;4999242;28;20444;-78
2023/01/30 08:52:56;;;;;;;22.58;3.53;;;;;;;;;;5002244;28;20054;-77
2023/01/30 08:55:22;;;;;;;21.25;3.10;;;;;;;;;;5001714;28;20062;-78
2023/01/30 08:57:48;;;;;;;10.18;2.55;;;;;;;;;;5000412;28;20054;-78
2023/01/30 09:00:15;;;;;;;8.23;2.60;;;;;;;;;;4999217;28;20046;-79
2023/01/30 09:02:42;;;;;;;17.48;2.80;;;;;;;;;;5001717;28;20054;-79
2023/01/30 09:05:11;;;;;;;16.85;3.38;;;;;;;;;;5000743;28;20054;-80
2023/01/30 09:07:38;;;;;;;24.25;3.35;;;;;;;;;;5005226;28;20051;-79
2023/01/30 09:10:04;;;;;;;20.25;3.50;;;;;;;;;;5001158;28;20054;-79
2023/01/30 09:12:31;;;;;;;12.10;1.95;;;;;;;;;;4998659;28;20427;-80
2023/01/30 09:14:59;;;;;;;17.10;3.22;;;;;;;;;;5000980;28;20133;-80
2023/01/30 09:17:25;;;;;;;23.98;3.22;;;;;;;;;;5001583;28;20054;-80
2023/01/30 09:19:52;;;;;;;19.38;4.13;;;;;;;;;;4998237;28;20285;-80
2023/01/30 09:22:18;;;;;;;17.77;2.90;;;;;;;;;;5002326;28;20086;-80
2023/01/30 09:24:44;;;;;;;24.88;2.60;;;;;;;;;;5001158;28;20499;-80
2023/01/30 09:27:11;;;;;;;14.63;2.92;;;;;;;;;;5000882;28;20054;-79
2023/01/30 09:29:37;;;;;;;14.95;3.35;;;;;;;;;;5003465;28;20054;-79
2023/01/30 09:32:03;;;;;;;24.27;3.80;;;;;;;;;;5001703;28;20058;-80
2023/01/30 09:34:30;;;;;;;14.25;2.28;;;;;;;;;;5001765;28;20504;-80
2023/01/30 09:36:59;;;;;;;15.55;2.60;;;;;;;;;;5000968;28;20054;-80
2023/01/30 09:39:25;;;;;;;22.63;3.55;;;;;;;;;;5003429;28;20581;-81
2023/01/30 09:41:58;;;;;;;21.40;2.72;;;;;;;;;;5005874;28;20277;-79
2023/01/30 09:44:31;;;;;;;16.92;3.30;;;;;;;;;;4998694;28;20061;-78
2023/01/30 09:47:02;;;;;;;15.02;2.67;;;;;;;;;;5001767;28;20145;-79
2023/01/30 09:49:32;;;;;;;20.52;4.35;;;;;;;;;;5007027;28;20062;-79
2023/01/30 09:52:08;;;;;;;21.52;2.88;;;;;;;;;;5017530;28;20069;-79
2023/01/30 09:54:36;;;;;;;24.58;4.07;;;;;;;;;;5001112;28;20054;-79
2023/01/30 09:57:22;;;;;;;14.60;2.25;;;;;;;;;;5000315;28;20598;-79
2023/01/30 09:59:48;;;;;;;13.70;2.67;;;;;;;;;;5001002;28;20062;-80
2023/01/30 10:02:23;;;;;;;22.55;3.78;;;;;;;;;;4995886;28;20054;-79
2023/01/30 10:04:51;;;;;;;19.48;3.28;;;;;;;;;;5000285;28;20456;-79
2023/01/30 10:07:46;;;;;;;20.50;3.08;;;;;;;;;;5001666;28;20101;-79
2023/01/30 10:10:12;;;;;;;13.37;2.50;;;;;;;;;;5001666;28;20078;-79
2023/01/30 10:12:38;;;;;;;18.00;3.45;;;;;;;;;;5000462;28;20061;-80
2023/01/30 10:15:20;;;;;;;21.33;2.95;;;;;;;;;;5007959;28;20113;-79
2023/01/30 10:17:52;;;;;;;34.80;4.82;;;;;;;;;;4999775;28;20060;-79
2023/01/30 10:20:30;;;;;;;16.38;3.33;;;;;;;;;;4999648;28;20055;-79
2023/01/30 10:23:11;;;;;;;19.83;3.40;;;;;;;;;;5001856;28;20054;-81
2023/01/30 10:25:45;;;;;;;15.60;2.75;;;;;;;;;;4999739;28;20599;-81
2023/01/30 10:28:32;;;;;;;21.27;2.92;;;;;;;;;;5001050;28;20082;-80
2023/01/30 10:31:08;;;;;;;16.25;3.30;;;;;;;;;;4999694;28;20054;-80
2023/01/30 10:33:58;;;;;;;19.13;2.90;;;;;;;;;;4998058;28;20066;-79
2023/01/30 10:36:30;;;;;;;16.48;2.45;;;;;;;;;;5000300;28;20097;-80
2023/01/30 10:38:59;;;;;;;18.13;3.35;;;;;;;;;;5001488;28;20061;-79
2023/01/30 10:41:29;;;;;;;20.48;3.40;;;;;;;;;;5014926;28;20128;-79
2023/01/30 10:43:55;;;;;;;23.02;3.53;;;;;;;;;;5001226;28;20058;-78
2023/01/30 10:46:27;;;;;;;13.82;2.40;;;;;;;;;;4999549;28;20069;-78
2023/01/30 10:48:57;;;;;;;19.30;3.60;;;;;;;;;;5001213;28;20079;-79
2023/01/30 10:51:24;;;;;;;21.58;3.13;;;;;;;;;;5000833;28;20058;-79
2023/01/30 10:54:10;;;;;;;21.85;4.10;;;;;;;;;;4998880;28;20075;-78
2023/01/30 10:56:46;;;;;;;13.82;3.35;;;;;;;;;;4988987;28;20086;-79
2023/01/30 10:59:34;;;;;;;15.80;2.80;;;;;;;;;;4997676;28;20062;-79
2023/01/30 11:02:19;;;;;;;24.60;3.50;;;;;;;;;;5001958;28;20510;-79
2023/01/30 11:04:51;;;;;;;13.93;2.63;;;;;;;;;;5003784;28;20050;-80
2023/01/30 11:07:17;;;;;;;11.23;2.55;;;;;;;;;;5001614;28;20190;-79
2023/01/30 11:09:45;;;;;;;17.00;2.80;;;;;;;;;;5003543;28;20792;-81
2023/01/30 11:12:12;;;;;;;10.73;3.00;;;;;;;;;;5003062;28;20051;-79
2023/01/30 11:14:49;;;;;;;17.98;2.92;;;;;;;;;;5018057;28;20054;-81
2023/01/30 11:17:17;;;;;;;19.38;2.83;;;;;;;;;;5003456;28;20502;-81
2023/01/30 11:19:43;;;;;;;27.98;3.53;;;;;;;;;;4998597;28;20056;-82
2023/01/30 11:22:12;;;;;;;15.65;2.50;;;;;;;;;;4999528;28;20077;-80
2023/01/30 11:24:39;;;;;;;23.88;3.92;;;;;;;;;;5003955;28;20105;-80
2023/01/30 11:27:10;;;;;;;26.35;2.85;;;;;;;;;;5003141;28;20287;-80
2023/01/30 11:29:39;;;;;;;16.08;3.70;;;;;;;;;;5002489;28;20051;-81
2023/01/30 11:32:14;;;;;;;18.23;3.00;;;;;;;;;;5004039;28;20058;-79
2023/01/30 11:34:42;;;;;;;21.45;3.13;;;;;;;;;;5004020;28;20141;-80
2023/01/30 11:37:23;;;;;;;21.20;4.00;;;;;;;;;;5003619;28;20085;-81
2023/01/30 11:39:50;;;;;;;17.58;3.08;;;;;;;;;;5018581;28;20488;-80
2023/01/30 11:42:18;;;;;;;15.70;3.17;;;;;;;;;;5023727;28;20054;-81
2023/01/30 11:44:44;;;;;;;23.50;3.83;;;;;;;;;;5022902;28;20085;-79
2023/01/30 11:47:18;;;;;;;24.05;3.90;;;;;;;;;;5000948;28;20050;-78
2023/01/30 11:49:51;;;;;;;20.63;4.00;;;;;;;;;;4998403;28;20057;-78
2023/01/30 11:52:41;;;;;;;24.88;3.85;;;;;;;;;;5001783;28;20488;-77
2023/01/30 11:55:11;;;;;;;19.90;3.42;;;;;;;;;;5003445;28;20058;-77
2023/01/30 11:57:42;;;;;;;19.60;2.38;;;;;;;;;;5001731;28;20061;-77
2023/01/30 12:00:17;;;;;;;29.00;3.97;;;;;;;;;;5002571;28;20062;-76
2023/01/30 12:02:46;;;;;;;16.83;2.40;;;;;;;;;;5002687;28;20133;-76
2023/01/30 12:05:22;;;;;;;15.15;2.70;;;;;;;;;;5001460;28;20050;-77
2023/01/30 12:07:49;;;;;;;19.75;4.60;;;;;;;;;;5001790;28;20057;-77
2023/01/30 12:10:25;;;;;;;13.35;3.75;;;;;;;;;;5003076;28;20524;-77
2023/01/30 12:12:56;;;;;;;23.27;3.83;;;;;;;;;;5001058;28;20054;-77
2023/01/30 12:15:24;;;;;;;16.38;3.65;;;;;;;;;;5002413;28;20055;-77
2023/01/30 12:17:53;;;;;;;22.73;4.90;;;;;;;;;;5003297;28;20161;-77
2023/01/30 12:20:24;;;;;;;16.27;3.33;;;;;;;;;;5001601;28;20063;-77
2023/01/30 12:23:02;;;;;;;22.77;4.22;;;;;;;;;;5003197;28;20061;-77
2023/01/30 12:25:47;;;;;;;14.38;3.03;;;;;;;;;;5000890;28;20050;-76
2023/01/30 12:28:19;;;;;;;23.77;3.42;;;;;;;;;;4997741;28;20050;-77
2023/01/30 12:30:48;;;;;;;21.33;2.40;;;;;;;;;;4999358;28;20065;-77
2023/01/30 12:33:15;;;;;;;23.52;4.15;;;;;;;;;;5002548;28;20508;-77
2023/01/30 12:35:46;;;;;;;21.63;2.83;;;;;;;;;;5017434;28;20074;-77
2023/01/30 12:38:19;;;;;;;18.58;3.35;;;;;;;;;;5003066;28;20218;-77
2023/01/30 12:40:52;;;;;;;16.98;2.83;;;;;;;;;;5003272;28;20054;-77
2023/01/30 12:43:27;;;;;;;18.00;3.42;;;;;;;;;;5003510;28;20058;-77
2023/01/30 12:45:59;;;;;;;16.42;2.30;;;;;;;;;;5003503;28;20507;-78
2023/01/30 12:48:44;;;;;;;12.68;2.45;;;;;;;;;;5000404;28;20534;-78
2023/01/30 12:51:26;;;;;;;10.45;2.20;;;;;;;;;;4982611;28;20054;-78
2023/01/30 12:53:55;;;;;;;15.75;2.83;;;;;;;;;;4982893;28;20130;-78
2023/01/30 12:56:41;;;;;;;15.90;2.95;;;;;;;;;;4996323;28;20411;-77
2023/01/30 12:59:16;;;;;;;22.08;3.90;;;;;;;;;;5002045;28;20555;-78
2023/01/30 13:01:46;;;;;;;18.15;3.33;;;;;;;;;;5001071;28;20054;-78
2023/01/30 13:04:38;;;;;;;19.40;3.42;;;;;;;;;;5001589;28;20105;-78
2023/01/30 13:07:43;;;;;;;11.05;2.13;;;;;;;;;;5001571;28;20062;-77
2023/01/30 13:10:27;;;;;;;16.45;3.47;;;;;;;;;;5000760;28;20058;-77
2023/01/30 13:13:17;;;;;;;9.65;2.22;;;;;;;;;;4982606;28;20059;-77
2023/01/30 13:15:48;;;;;;;17.30;3.63;;;;;;;;;;4982721;28;20055;-78
2023/01/30 13:18:16;;;;;;;17.08;2.67;;;;;;;;;;4997456;28;20059;-78
2023/01/30 13:20:42;;;;;;;13.23;3.45;;;;;;;;;;4999426;28;20062;-78
2023/01/30 13:23:14;;;;;;;16.13;2.92;;;;;;;;;;5000588;28;20060;-78
2023/01/30 13:25:57;;;;;;;15.20;3.20;;;;;;;;;;5003051;28;20062;-78
2023/01/30 13:28:26;;;;;;;14.05;3.35;;;;;;;;;;4998637;28;20061;-78
2023/01/30 13:30:54;;;;;;;20.25;3.30;;;;;;;;;;4999772;28;20050;-78
2023/01/30 13:33:32;;;;;;;19.63;4.25;;;;;;;;;;4999006;28;20058;-77
2023/01/30 13:36:19;;;;;;;22.73;3.03;;;;;;;;;;5001144;28;20530;-78
2023/01/30 13:38:57;;;;;;;20.00;3.28;;;;;;;;;;5002190;28;20054;-78
2023/01/30 13:41:24;;;;;;;16.98;2.92;;;;;;;;;;5000233;28;20046;-77
2023/01/30 13:43:51;;;;;;;10.70;2.67;;;;;;;;;;4998003;28;20521;-78
2023/01/30 13:46:22;;;;;;;15.73;4.03;;;;;;;;;;5000942;28;20264;-77
2023/01/30 13:49:08;;;;;;;16.13;2.67;;;;;;;;;;5015259;28;20055;-77
2023/01/30 13:51:46;;;;;;;19.95;3.33;;;;;;;;;;5001203;28;20349;-78
2023/01/30 13:54:15;;;;;;;29.55;3.33;;;;;;;;;;5000563;28;20056;-78
2023/01/30 13:56:46;;;;;;;12.50;2.45;;;;;;;;;;5001424;28;20057;-77
2023/01/30 13:59:31;;;;;;;14.00;3.38;;;;;;;;;;4995760;28;20145;-77
2023/01/30 14:01:58;;;;;;;16.30;3.50;;;;;;;;;;4982629;28;20059;-77
2023/01/30 14:04:39;;;;;;;18.50;2.95;;;;;;;;;;4981455;28;20325;-77
2023/01/30 14:07:26;;;;;;;17.63;3.65;;;;;;;;;;4981938;28;20051;-76
2023/01/30 14:10:08;;;;;;;15.07;2.70;;;;;;;;;;4997248;28;20533;-77
2023/01/30 14:12:48;;;;;;;15.43;2.72;;;;;;;;;;4998306;28;20691;-77
2023/01/30 14:15:23;;;;;;;13.52;4.00;;;;;;;;;;4998843;28;20160;-77
2023/01/30 14:18:06;;;;;;;17.13;3.35;;;;;;;;;;5000264;28;20554;-76
2023/01/30 14:20:34;;;;;;;15.15;2.58;;;;;;;;;;4999183;28;20595;-77
2023/01/30 14:23:03;;;;;;;13.85;2.65;;;;;;;;;;5001206;28;20058;-77
2023/01/30 14:25:31;;;;;;;20.73;2.60;;;;;;;;;;5000666;28;20512;-66
2023/01/30 14:27:58;;;;;;;16.35;3.33;;;;;;;;;;4999403;28;20104;-78
2023/01/30 14:30:30;;;;;;;20.05;3.50;;;;;;;;;;4999747;28;20065;-81
2023/01/30 14:32:59;;;;;;;34.28;4.13;;;;;;;;;;5000635;28;20089;-78
2023/01/30 14:35:28;;;;;;;18.73;4.28;;;;;;;;;;5002739;28;20057;-79
2023/01/30 14:38:14;;;;;;;10.55;2.13;;;;;;;;;;4998718;28;20084;-78
2023/01/30 14:40:42;;;;;;;14.70;3.08;;;;;;;;;;5002412;28;20058;-79
2023/01/30 14:43:11;;;;;;;14.45;2.83;;;;;;;;;;5002999;28;20065;-79
2023/01/30 14:45:46;;;;;;;13.13;2.95;;;;;;;;;;4997891;28;20061;-79
2023/01/30 14:48:32;;;;;;;19.35;3.47;;;;;;;;;;4984844;28;20109;-80